Amelia, Louisiana
Current Conditions -  °F | °C
As of 4:55 AM on Monday 20 Oct 2014 (Local Time) from KHUM Reporting Station
Clear Clear  
Wind Chill: 15°   Ceiling: Unl
Heat Index: 15°   Visibility: 7mi
Dew Point: 14°   Wind: 0mph
Humidity: 98%   Direction: NA
Pressure: 30.02"   Gusts: NA
Location:  29.67°N, 91.1°W
Report Text: KHUM 200955Z AUTO 00000KT 7SM CLR 15/14 A3002 RMK AO2 T01470144
Loading
Personal Weather Stations






























Interactive Weather Map
Tropical Storm Tracking
New forecast layout! Learn more

10-Day Weather Forecast

Advertisements
Track Severe Weather on mobile